CheckWX is a tool to help pilots better visualize weather data.  It is not intended as a substitute for an official pre-flight weather briefing.

21:07:58 UTC

KSLN METAR
Salina Regional Airport
Salina, Kansas, USA
Current

15 mins ago

KSLN 202053Z 18016G25KT 10SM CLR 28/08 A2979 RMK AO2 PK WND 20026/2037 SLP081 T02830078 56026
Observed
Apr-20 @ 20:53 UTC
Wind
  • 180° at 16 KTS
  • Gusting to 25 KTS
Visibility
10 SM
Flight Rules
VFR
Cloud Levels
  • Clear skies
Temperature
28°C / 82°F
Dewpoint
C / 46°F
Humidity
28%
Altimeter
29.79" Hg
Pressure
1008.82 hPa
Previous

1 hour ago

KSLN 201953Z 18017G25KT 10SM CLR 28/07 A2981 RMK AO2 SLP090 T02830072
Observed
Apr-20 @ 19:53 UTC
Wind
  • 180° at 17 KTS
  • Gusting to 25 KTS
Visibility
10 SM
Flight Rules
VFR
Cloud Levels
  • Clear skies
Temperature
28°C / 82°F
Dewpoint
C / 45°F
Humidity
26%
Altimeter
29.81" Hg
Pressure
1009.52 hPa
Previous

2 hours ago

KSLN 201853Z 20016KT 10SM CLR 27/07 A2984 RMK AO2 PK WND 20028/1817 SLP098 T02720072
Observed
Apr-20 @ 18:53 UTC
Wind
  • 200° at 16 KTS
Visibility
10 SM
Flight Rules
VFR
Cloud Levels
  • Clear skies
Temperature
27°C / 81°F
Dewpoint
C / 45°F
Humidity
28%
Altimeter
29.84" Hg
Pressure
1010.52 hPa